sensor_id;sensor_type;location;lat;lon;timestamp;pressure;altitude;pressure_sealevel;temperature;humidity
6680;BME280;3376;42.664;23.346;2023-04-07T00:00:22;94253.94;;;3.58;69.88
6680;BME280;3376;42.664;23.346;2023-04-07T00:02:50;94237.78;;;3.48;69.86
6680;BME280;3376;42.664;23.346;2023-04-07T00:05:17;94215.19;;;3.34;70.09
6680;BME280;3376;42.664;23.346;2023-04-07T00:07:43;94253.94;;;3.58;69.08
6680;BME280;3376;42.664;23.346;2023-04-07T00:10:12;94255.28;;;3.63;70.43
6680;BME280;3376;42.664;23.346;2023-04-07T00:12:38;94257.56;;;3.66;69.16
6680;BME280;3376;42.664;23.346;2023-04-07T00:15:06;94252.34;;;3.57;68.34
6680;BME280;3376;42.664;23.346;2023-04-07T00:17:33;94258.78;;;3.62;69.25
6680;BME280;3376;42.664;23.346;2023-04-07T00:20:00;94243.69;;;3.58;69.93
6680;BME280;3376;42.664;23.346;2023-04-07T00:22:26;94246.09;;;3.60;68.13
6680;BME280;3376;42.664;23.346;2023-04-07T00:24:53;94243.31;;;3.53;67.07
6680;BME280;3376;42.664;23.346;2023-04-07T00:27:22;94219.09;;;3.38;67.85
6680;BME280;3376;42.664;23.346;2023-04-07T00:29:48;94254.06;;;3.57;68.10
6680;BME280;3376;42.664;23.346;2023-04-07T00:32:15;94246.41;;;3.57;68.24
6680;BME280;3376;42.664;23.346;2023-04-07T00:34:42;94247.59;;;3.63;68.64
6680;BME280;3376;42.664;23.346;2023-04-07T00:37:08;94245.31;;;3.59;68.74
6680;BME280;3376;42.664;23.346;2023-04-07T00:39:35;94249.63;;;3.59;67.50
6680;BME280;3376;42.664;23.346;2023-04-07T00:42:02;94250.47;;;3.50;67.45
6680;BME280;3376;42.664;23.346;2023-04-07T00:44:31;94245.56;;;3.66;67.99
6680;BME280;3376;42.664;23.346;2023-04-07T00:46:58;94254.44;;;3.72;68.78
6680;BME280;3376;42.664;23.346;2023-04-07T00:49:25;94251.72;;;3.73;70.03
6680;BME280;3376;42.664;23.346;2023-04-07T00:51:53;94247.31;;;3.66;68.73
6680;BME280;3376;42.664;23.346;2023-04-07T00:54:20;94245.41;;;3.68;67.60
6680;BME280;3376;42.664;23.346;2023-04-07T00:56:48;94233.34;;;3.50;68.35
6680;BME280;3376;42.664;23.346;2023-04-07T00:59:15;94246.41;;;3.57;67.48
6680;BME280;3376;42.664;23.346;2023-04-07T01:01:47;94253.94;;;3.58;66.99
6680;BME280;3376;42.664;23.346;2023-04-07T01:04:21;94253.69;;;3.62;69.28
6680;BME280;3376;42.664;23.346;2023-04-07T01:06:55;94249.47;;;3.70;68.89
6680;BME280;3376;42.664;23.346;2023-04-07T01:09:28;94236.69;;;3.60;69.04
6680;BME280;3376;42.664;23.346;2023-04-07T01:11:59;94249.56;;;3.69;67.40
6680;BME280;3376;42.664;23.346;2023-04-07T01:14:32;94242.84;;;3.68;68.00
6680;BME280;3376;42.664;23.346;2023-04-07T01:17:04;94243.97;;;3.65;66.73
6680;BME280;3376;42.664;23.346;2023-04-07T01:19:36;94241.28;;;3.57;66.55
6680;BME280;3376;42.664;23.346;2023-04-07T01:22:07;94244.94;;;3.54;66.58
6680;BME280;3376;42.664;23.346;2023-04-07T01:24:54;94240.19;;;3.59;66.06
6680;BME280;3376;42.664;23.346;2023-04-07T01:27:35;94222.44;;;3.48;66.48
6680;BME280;3376;42.664;23.346;2023-04-07T01:30:09;94223.59;;;3.63;67.56
6680;BME280;3376;42.664;23.346;2023-04-07T01:32:38;94226.94;;;3.74;67.07
6680;BME280;3376;42.664;23.346;2023-04-07T01:35:09;94204.59;;;3.56;66.04
6680;BME280;3376;42.664;23.346;2023-04-07T01:37:38;94232.31;;;3.71;65.79
6680;BME280;3376;42.664;23.346;2023-04-07T01:40:07;94214.31;;;3.63;65.54
6680;BME280;3376;42.664;23.346;2023-04-07T01:42:34;94235.13;;;3.77;66.71
6680;BME280;3376;42.664;23.346;2023-04-07T01:45:02;94218.00;;;3.78;69.16
6680;BME280;3376;42.664;23.346;2023-04-07T01:47:32;94226.06;;;3.83;65.04
6680;BME280;3376;42.664;23.346;2023-04-07T01:50:00;94228.38;;;3.86;66.47
6680;BME280;3376;42.664;23.346;2023-04-07T01:52:30;94233.22;;;3.79;66.37
6680;BME280;3376;42.664;23.346;2023-04-07T01:54:57;94225.97;;;3.75;73.39
6680;BME280;3376;42.664;23.346;2023-04-07T01:57:23;94215.59;;;3.76;79.00
6680;BME280;3376;42.664;23.346;2023-04-07T01:59:50;94216.78;;;3.54;81.99
6680;BME280;3376;42.664;23.346;2023-04-07T02:02:17;94220.84;;;3.38;84.28
6680;BME280;3376;42.664;23.346;2023-04-07T02:04:52;94211.59;;;3.27;84.25
6680;BME280;3376;42.664;23.346;2023-04-07T02:07:28;94216.50;;;3.11;85.23
6680;BME280;3376;42.664;23.346;2023-04-07T02:09:58;94214.47;;;3.15;85.06
6680;BME280;3376;42.664;23.346;2023-04-07T02:12:28;94215.16;;;3.07;85.76
6680;BME280;3376;42.664;23.346;2023-04-07T02:14:55;94207.75;;;3.04;88.19
6680;BME280;3376;42.664;23.346;2023-04-07T02:17:24;94210.31;;;3.04;87.51
6680;BME280;3376;42.664;23.346;2023-04-07T02:19:54;94124.28;;;2.48;87.82
6680;BME280;3376;42.664;23.346;2023-04-07T02:22:23;93949.41;;;1.39;87.54
6680;BME280;3376;42.664;23.346;2023-04-07T02:24:51;94214.66;;;2.94;88.28
6680;BME280;3376;42.664;23.346;2023-04-07T02:27:17;94210.22;;;2.87;88.71
6680;BME280;3376;42.664;23.346;2023-04-07T02:29:45;94199.72;;;2.80;89.79
6680;BME280;3376;42.664;23.346;2023-04-07T02:32:11;94213.47;;;2.79;90.18
6680;BME280;3376;42.664;23.346;2023-04-07T02:34:38;94212.91;;;2.85;89.71
6680;BME280;3376;42.664;23.346;2023-04-07T02:37:06;94218.03;;;2.95;89.07
6680;BME280;3376;42.664;23.346;2023-04-07T02:39:33;94214.50;;;2.96;90.31
6680;BME280;3376;42.664;23.346;2023-04-07T02:42:00;94199.06;;;2.88;89.55
6680;BME280;3376;42.664;23.346;2023-04-07T02:44:26;94212.75;;;2.87;89.40
6680;BME280;3376;42.664;23.346;2023-04-07T02:46:53;94214.50;;;2.96;90.47
6680;BME280;3376;42.664;23.346;2023-04-07T02:49:20;94217.06;;;2.96;91.47
6680;BME280;3376;42.664;23.346;2023-04-07T02:51:47;94212.47;;;2.99;90.85
6680;BME280;3376;42.664;23.346;2023-04-07T02:54:15;94210.19;;;3.06;90.20
6680;BME280;3376;42.664;23.346;2023-04-07T02:56:42;94224.84;;;3.04;89.23
6680;BME280;3376;42.664;23.346;2023-04-07T02:59:08;94229.81;;;3.05;89.40
6680;BME280;3376;42.664;23.346;2023-04-07T03:01:35;94223.50;;;3.09;90.87
6680;BME280;3376;42.664;23.346;2023-04-07T03:04:03;94224.56;;;3.07;90.14
6680;BME280;3376;42.664;23.346;2023-04-07T03:06:30;94223.78;;;3.06;90.30
6680;BME280;3376;42.664;23.346;2023-04-07T03:08:57;94225.91;;;3.11;90.55
6680;BME280;3376;42.664;23.346;2023-04-07T03:11:26;94126.47;;;2.33;90.78
6680;BME280;3376;42.664;23.346;2023-04-07T03:13:52;94230.53;;;2.98;91.34
6680;BME280;3376;42.664;23.346;2023-04-07T03:16:19;94227.16;;;2.97;90.79
6680;BME280;3376;42.664;23.346;2023-04-07T03:18:46;94233.38;;;2.95;88.91
6680;BME280;3376;42.664;23.346;2023-04-07T03:21:12;94234.56;;;2.91;87.34
6680;BME280;3376;42.664;23.346;2023-04-07T03:23:39;94231.47;;;3.06;84.62
6680;BME280;3376;42.664;23.346;2023-04-07T03:26:06;94220.13;;;3.09;84.59
6680;BME280;3376;42.664;23.346;2023-04-07T03:28:34;94200.38;;;3.01;84.39
6680;BME280;3376;42.664;23.346;2023-04-07T03:31:01;94215.53;;;3.12;77.06
6680;BME280;3376;42.664;23.346;2023-04-07T03:33:28;94225.72;;;3.31;75.81
6680;BME280;3376;42.664;23.346;2023-04-07T03:35:54;94208.09;;;3.28;70.67
6680;BME280;3376;42.664;23.346;2023-04-07T03:38:21;94216.78;;;3.45;70.16
6680;BME280;3376;42.664;23.346;2023-04-07T03:40:48;94217.69;;;3.53;70.89
6680;BME280;3376;42.664;23.346;2023-04-07T03:43:15;94218.38;;;3.55;69.08
6680;BME280;3376;42.664;23.346;2023-04-07T03:45:43;94212.28;;;3.56;68.76
6680;BME280;3376;42.664;23.346;2023-04-07T03:48:10;94217.25;;;3.68;69.00
6680;BME280;3376;42.664;23.346;2023-04-07T03:50:37;94222.66;;;3.65;69.54
6680;BME280;3376;42.664;23.346;2023-04-07T03:53:04;94221.47;;;3.59;68.53
6680;BME280;3376;42.664;23.346;2023-04-07T03:55:32;94236.66;;;3.70;67.69
6680;BME280;3376;42.664;23.346;2023-04-07T03:57:59;94228.78;;;3.81;68.18
6680;BME280;3376;42.664;23.346;2023-04-07T04:00:26;94225.31;;;3.73;66.99
6680;BME280;3376;42.664;23.346;2023-04-07T04:02:54;94230.00;;;3.77;67.96
6680;BME280;3376;42.664;23.346;2023-04-07T04:05:21;94230.06;;;3.68;68.24
6680;BME280;3376;42.664;23.346;2023-04-07T04:07:47;94238.78;;;3.75;69.42
6680;BME280;3376;42.664;23.346;2023-04-07T04:10:15;94241.44;;;3.83;68.44
6680;BME280;3376;42.664;23.346;2023-04-07T04:12:42;94242.78;;;3.87;69.24
6680;BME280;3376;42.664;23.346;2023-04-07T04:15:09;94246.28;;;3.86;69.27
6680;BME280;3376;42.664;23.346;2023-04-07T04:17:36;94240.13;;;3.79;66.99
6680;BME280;3376;42.664;23.346;2023-04-07T04:20:06;94236.59;;;3.80;72.72
6680;BME280;3376;42.664;23.346;2023-04-07T04:22:33;94241.81;;;3.88;76.53
6680;BME280;3376;42.664;23.346;2023-04-07T04:25:00;94205.03;;;3.62;78.80
6680;BME280;3376;42.664;23.346;2023-04-07T04:27:27;94231.56;;;3.60;79.69
6680;BME280;3376;42.664;23.346;2023-04-07T04:29:54;94244.34;;;3.70;81.15
6680;BME280;3376;42.664;23.346;2023-04-07T04:32:20;94252.84;;;3.61;83.70
6680;BME280;3376;42.664;23.346;2023-04-07T04:34:47;94242.91;;;3.48;83.82
6680;BME280;3376;42.664;23.346;2023-04-07T04:37:15;94258.44;;;3.47;84.22
6680;BME280;3376;42.664;23.346;2023-04-07T04:39:42;94264.75;;;3.52;85.29
6680;BME280;3376;42.664;23.346;2023-04-07T04:42:09;94259.06;;;3.58;85.72
6680;BME280;3376;42.664;23.346;2023-04-07T04:44:36;94260.84;;;3.48;85.53
6680;BME280;3376;42.664;23.346;2023-04-07T04:47:02;94264.75;;;3.43;85.49
6680;BME280;3376;42.664;23.346;2023-04-07T04:49:29;94252.09;;;3.41;85.34
6680;BME280;3376;42.664;23.346;2023-04-07T04:51:56;94268.00;;;3.45;87.56
6680;BME280;3376;42.664;23.346;2023-04-07T04:54:24;94270.44;;;3.37;87.58
6680;BME280;3376;42.664;23.346;2023-04-07T04:57:10;94273.28;;;3.24;87.95
6680;BME280;3376;42.664;23.346;2023-04-07T04:59:36;94269.25;;;3.31;86.42
6680;BME280;3376;42.664;23.346;2023-04-07T05:02:04;94277.03;;;3.39;85.52
6680;BME280;3376;42.664;23.346;2023-04-07T05:04:30;94224.66;;;3.24;84.97
6680;BME280;3376;42.664;23.346;2023-04-07T05:06:57;94264.06;;;3.50;84.17
6680;BME280;3376;42.664;23.346;2023-04-07T05:09:25;94279.09;;;3.73;84.90
6680;BME280;3376;42.664;23.346;2023-04-07T05:11:52;94284.78;;;3.67;85.45
6680;BME280;3376;42.664;23.346;2023-04-07T05:14:20;94281.22;;;3.77;84.38
6680;BME280;3376;42.664;23.346;2023-04-07T05:16:46;94283.38;;;3.82;81.81
6680;BME280;3376;42.664;23.346;2023-04-07T05:19:13;94292.34;;;3.95;81.08
6680;BME280;3376;42.664;23.346;2023-04-07T05:21:40;94286.03;;;4.17;85.93
6680;BME280;3376;42.664;23.346;2023-04-07T05:24:07;94272.28;;;4.18;81.51
6680;BME280;3376;42.664;23.346;2023-04-07T05:26:35;94289.25;;;4.28;80.88
6680;BME280;3376;42.664;23.346;2023-04-07T05:29:02;94294.91;;;4.22;81.53
6680;BME280;3376;42.664;23.346;2023-04-07T05:31:29;94284.34;;;4.35;78.96
6680;BME280;3376;42.664;23.346;2023-04-07T05:33:55;94262.72;;;4.37;77.60
6680;BME280;3376;42.664;23.346;2023-04-07T05:36:22;94292.78;;;4.80;76.14
6680;BME280;3376;42.664;23.346;2023-04-07T05:38:49;94274.56;;;4.83;75.79
6680;BME280;3376;42.664;23.346;2023-04-07T05:41:16;94300.28;;;5.09;74.85
6680;BME280;3376;42.664;23.346;2023-04-07T05:43:44;94297.78;;;5.17;77.17
6680;BME280;3376;42.664;23.346;2023-04-07T05:46:11;94286.56;;;5.00;75.04
6680;BME280;3376;42.664;23.346;2023-04-07T05:48:38;94265.53;;;4.97;74.03
6680;BME280;3376;42.664;23.346;2023-04-07T05:51:05;94297.09;;;5.32;73.72
6680;BME280;3376;42.664;23.346;2023-04-07T05:53:32;94289.59;;;5.39;73.43
6680;BME280;3376;42.664;23.346;2023-04-07T05:55:58;94289.25;;;5.59;72.00
6680;BME280;3376;42.664;23.346;2023-04-07T05:58:25;94298.16;;;5.73;71.42
6680;BME280;3376;42.664;23.346;2023-04-07T06:00:53;94301.06;;;5.95;71.57
6680;BME280;3376;42.664;23.346;2023-04-07T06:03:20;94304.34;;;6.14;70.07
6680;BME280;3376;42.664;23.346;2023-04-07T06:05:47;94303.94;;;6.34;69.80
6680;BME280;3376;42.664;23.346;2023-04-07T06:08:14;94287.41;;;6.45;69.23
6680;BME280;3376;42.664;23.346;2023-04-07T06:10:40;94298.91;;;6.66;68.32
6680;BME280;3376;42.664;23.346;2023-04-07T06:13:08;94294.59;;;6.91;67.48
6680;BME280;3376;42.664;23.346;2023-04-07T06:15:35;94304.13;;;7.06;67.94
6680;BME280;3376;42.664;23.346;2023-04-07T06:18:03;94306.41;;;7.18;64.98
6680;BME280;3376;42.664;23.346;2023-04-07T06:20:30;94304.97;;;7.47;64.62
6680;BME280;3376;42.664;23.346;2023-04-07T06:22:57;94312.97;;;7.68;62.89
6680;BME280;3376;42.664;23.346;2023-04-07T06:25:23;94306.97;;;7.92;61.74
6680;BME280;3376;42.664;23.346;2023-04-07T06:27:50;94284.06;;;8.05;60.65
6680;BME280;3376;42.664;23.346;2023-04-07T06:30:17;94308.81;;;8.38;58.49
6680;BME280;3376;42.664;23.346;2023-04-07T06:32:44;94304.75;;;8.74;57.62
6680;BME280;3376;42.664;23.346;2023-04-07T06:35:12;94307.03;;;8.69;58.32
6680;BME280;3376;42.664;23.346;2023-04-07T06:37:39;94296.22;;;8.74;57.27
6680;BME280;3376;42.664;23.346;2023-04-07T06:40:07;94292.31;;;8.78;57.32
6680;BME280;3376;42.664;23.346;2023-04-07T06:42:34;94286.38;;;8.69;58.40
6680;BME280;3376;42.664;23.346;2023-04-07T06:45:00;94301.84;;;8.77;57.41
6680;BME280;3376;42.664;23.346;2023-04-07T06:47:27;94306.72;;;8.72;58.18
6680;BME280;3376;42.664;23.346;2023-04-07T06:49:54;94287.88;;;8.64;59.78
6680;BME280;3376;42.664;23.346;2023-04-07T06:52:22;94283.47;;;8.95;58.18
6680;BME280;3376;42.664;23.346;2023-04-07T06:54:49;94291.72;;;9.21;55.21
6680;BME280;3376;42.664;23.346;2023-04-07T06:57:15;94308.66;;;9.46;56.97
6680;BME280;3376;42.664;23.346;2023-04-07T06:59:42;94271.66;;;9.45;56.24
6680;BME280;3376;42.664;23.346;2023-04-07T07:02:09;94291.78;;;9.35;55.84
6680;BME280;3376;42.664;23.346;2023-04-07T07:04:36;94298.13;;;9.47;55.61
6680;BME280;3376;42.664;23.346;2023-04-07T07:07:03;94293.16;;;9.46;53.60
6680;BME280;3376;42.664;23.346;2023-04-07T07:09:31;94285.88;;;9.64;54.15
6680;BME280;3376;42.664;23.346;2023-04-07T07:11:58;94278.47;;;9.76;52.94
6680;BME280;3376;42.664;23.346;2023-04-07T07:14:26;94311.44;;;9.59;50.54
6680;BME280;3376;42.664;23.346;2023-04-07T07:16:53;94298.47;;;9.44;48.91
6680;BME280;3376;42.664;23.346;2023-04-07T07:19:19;94300.31;;;9.36;48.65
6680;BME280;3376;42.664;23.346;2023-04-07T07:21:46;94302.69;;;9.60;47.69
6680;BME280;3376;42.664;23.346;2023-04-07T07:24:13;94300.38;;;9.65;46.45
6680;BME280;3376;42.664;23.346;2023-04-07T07:26:41;94307.28;;;9.58;44.52
6680;BME280;3376;42.664;23.346;2023-04-07T07:29:09;94289.63;;;9.76;44.75
6680;BME280;3376;42.664;23.346;2023-04-07T07:31:36;94313.31;;;10.02;42.60
6680;BME280;3376;42.664;23.346;2023-04-07T07:34:03;94318.34;;;10.18;43.83
6680;BME280;3376;42.664;23.346;2023-04-07T07:36:29;94298.44;;;10.19;41.17
6680;BME280;3376;42.664;23.346;2023-04-07T07:38:56;94320.44;;;10.00;42.10
6680;BME280;3376;42.664;23.346;2023-04-07T07:41:23;94326.03;;;9.89;43.12
6680;BME280;3376;42.664;23.346;2023-04-07T07:43:52;94324.63;;;9.87;43.15
6680;BME280;3376;42.664;23.346;2023-04-07T07:46:18;94316.19;;;10.07;42.62
6680;BME280;3376;42.664;23.346;2023-04-07T07:48:45;94316.53;;;10.04;41.43
6680;BME280;3376;42.664;23.346;2023-04-07T07:51:12;94318.75;;;10.07;41.57
6680;BME280;3376;42.664;23.346;2023-04-07T07:53:38;94322.63;;;10.11;41.61
6680;BME280;3376;42.664;23.346;2023-04-07T07:56:05;94322.22;;;10.00;42.17
6680;BME280;3376;42.664;23.346;2023-04-07T07:58:32;94323.63;;;9.73;40.58
6680;BME280;3376;42.664;23.346;2023-04-07T08:01:00;94321.63;;;9.38;40.88
6680;BME280;3376;42.664;23.346;2023-04-07T08:03:27;94322.47;;;9.53;41.59
6680;BME280;3376;42.664;23.346;2023-04-07T08:05:54;94312.56;;;9.42;42.96
6680;BME280;3376;42.664;23.346;2023-04-07T08:08:20;94307.09;;;9.14;41.81
6680;BME280;3376;42.664;23.346;2023-04-07T08:10:47;94301.25;;;8.98;43.40
6680;BME280;3376;42.664;23.346;2023-04-07T08:13:14;94337.69;;;9.03;42.55
6680;BME280;3376;42.664;23.346;2023-04-07T08:15:41;94300.41;;;8.75;42.40
6680;BME280;3376;42.664;23.346;2023-04-07T08:18:09;94328.03;;;8.97;44.28
6680;BME280;3376;42.664;23.346;2023-04-07T08:20:36;94323.16;;;9.02;42.73
6680;BME280;3376;42.664;23.346;2023-04-07T08:23:02;94329.66;;;9.43;44.10
6680;BME280;3376;42.664;23.346;2023-04-07T08:25:29;94328.34;;;9.70;43.02
6680;BME280;3376;42.664;23.346;2023-04-07T08:27:56;94311.94;;;10.14;40.75
6680;BME280;3376;42.664;23.346;2023-04-07T08:30:23;94323.88;;;10.44;39.97
6680;BME280;3376;42.664;23.346;2023-04-07T08:32:50;94323.22;;;9.99;40.70
6680;BME280;3376;42.664;23.346;2023-04-07T08:35:18;94324.84;;;9.77;41.31
6680;BME280;3376;42.664;23.346;2023-04-07T08:37:44;94308.94;;;9.51;41.49
6680;BME280;3376;42.664;23.346;2023-04-07T08:40:11;94312.44;;;9.58;41.67
6680;BME280;3376;42.664;23.346;2023-04-07T08:42:40;94319.38;;;9.58;44.25
6680;BME280;3376;42.664;23.346;2023-04-07T08:45:08;94325.69;;;9.55;41.96
6680;BME280;3376;42.664;23.346;2023-04-07T08:47:36;94317.72;;;9.42;41.81
6680;BME280;3376;42.664;23.346;2023-04-07T08:50:07;94283.63;;;9.01;42.30
6680;BME280;3376;42.664;23.346;2023-04-07T08:52:41;94285.09;;;8.96;42.45
6680;BME280;3376;42.664;23.346;2023-04-07T08:55:10;94315.03;;;9.13;42.24
6680;BME280;3376;42.664;23.346;2023-04-07T08:57:37;94314.09;;;9.06;42.72
6680;BME280;3376;42.664;23.346;2023-04-07T09:00:05;94318.41;;;8.83;41.65
6680;BME280;3376;42.664;23.346;2023-04-07T09:02:32;94318.41;;;8.83;42.02
6680;BME280;3376;42.664;23.346;2023-04-07T09:05:00;94325.03;;;8.85;43.40
6680;BME280;3376;42.664;23.346;2023-04-07T09:07:26;94324.38;;;9.14;42.48
6680;BME280;3376;42.664;23.346;2023-04-07T09:09:55;94327.25;;;9.64;42.44
6680;BME280;3376;42.664;23.346;2023-04-07T09:12:22;94313.88;;;10.12;41.67
6680;BME280;3376;42.664;23.346;2023-04-07T09:14:49;94326.31;;;10.31;41.08
6680;BME280;3376;42.664;23.346;2023-04-07T09:17:16;94333.34;;;10.23;39.14
6680;BME280;3376;42.664;23.346;2023-04-07T09:19:42;94324.25;;;10.12;40.33
6680;BME280;3376;42.664;23.346;2023-04-07T09:22:09;94315.94;;;10.46;39.30
6680;BME280;3376;42.664;23.346;2023-04-07T09:24:39;94319.41;;;10.53;39.20
6680;BME280;3376;42.664;23.346;2023-04-07T09:27:15;94313.63;;;10.36;40.10
6680;BME280;3376;42.664;23.346;2023-04-07T09:29:44;94324.44;;;10.40;39.30
6680;BME280;3376;42.664;23.346;2023-04-07T09:32:11;94316.75;;;10.17;39.21
6680;BME280;3376;42.664;23.346;2023-04-07T09:34:40;94327.00;;;10.11;40.76
6680;BME280;3376;42.664;23.346;2023-04-07T09:37:07;94332.63;;;10.29;40.99
6680;BME280;3376;42.664;23.346;2023-04-07T09:39:48;94328.47;;;10.05;39.46
6680;BME280;3376;42.664;23.346;2023-04-07T09:42:17;94328.38;;;9.99;41.02
6680;BME280;3376;42.664;23.346;2023-04-07T09:44:43;94314.19;;;9.95;40.00
6680;BME280;3376;42.664;23.346;2023-04-07T09:47:10;94316.84;;;10.09;40.84
6680;BME280;3376;42.664;23.346;2023-04-07T09:49:48;94317.81;;;10.08;41.32
6680;BME280;3376;42.664;23.346;2023-04-07T09:52:15;94334.16;;;10.09;41.36
6680;BME280;3376;42.664;23.346;2023-04-07T09:54:44;94335.13;;;10.22;41.14
6680;BME280;3376;42.664;23.346;2023-04-07T09:57:12;94340.72;;;10.11;41.08
6680;BME280;3376;42.664;23.346;2023-04-07T09:59:40;94335.72;;;10.10;40.98
6680;BME280;3376;42.664;23.346;2023-04-07T10:02:09;94339.34;;;10.38;41.10
6680;BME280;3376;42.664;23.346;2023-04-07T10:04:36;94331.06;;;10.78;41.57
6680;BME280;3376;42.664;23.346;2023-04-07T10:07:04;94324.81;;;11.44;41.02
6680;BME280;3376;42.664;23.346;2023-04-07T10:09:31;94334.47;;;11.71;38.75
6680;BME280;3376;42.664;23.346;2023-04-07T10:11:58;94321.38;;;11.79;38.33
6680;BME280;3376;42.664;23.346;2023-04-07T10:14:27;94329.31;;;11.77;38.02
6680;BME280;3376;42.664;23.346;2023-04-07T10:16:55;94305.06;;;11.64;38.90
6680;BME280;3376;42.664;23.346;2023-04-07T10:19:23;94314.59;;;11.57;39.99
6680;BME280;3376;42.664;23.346;2023-04-07T10:21:53;94333.59;;;11.43;38.60
6680;BME280;3376;42.664;23.346;2023-04-07T10:24:30;94329.25;;;11.29;39.49
6680;BME280;3376;42.664;23.346;2023-04-07T10:27:04;94333.34;;;11.02;38.81
6680;BME280;3376;42.664;23.346;2023-04-07T10:29:34;94334.03;;;10.90;39.47
6680;BME280;3376;42.664;23.346;2023-04-07T10:32:04;94331.22;;;10.55;41.33
6680;BME280;3376;42.664;23.346;2023-04-07T10:34:58;94342.28;;;10.49;41.15
6680;BME280;3376;42.664;23.346;2023-04-07T10:37:25;94342.19;;;10.57;41.23
6680;BME280;3376;42.664;23.346;2023-04-07T10:42:52;94337.47;;;10.46;41.63
6680;BME280;3376;42.664;23.346;2023-04-07T10:45:53;94343.63;;;10.45;40.87
6680;BME280;3376;42.664;23.346;2023-04-07T10:48:22;94342.09;;;10.36;42.63
6680;BME280;3376;42.664;23.346;2023-04-07T10:51:11;94350.84;;;10.35;41.94
6680;BME280;3376;42.664;23.346;2023-04-07T10:54:14;94338.25;;;10.32;43.78
6680;BME280;3376;42.664;23.346;2023-04-07T10:57:07;94344.34;;;10.25;43.46
6680;BME280;3376;42.664;23.346;2023-04-07T10:59:37;94353.91;;;9.87;44.83
6680;BME280;3376;42.664;23.346;2023-04-07T11:02:30;94354.16;;;9.92;44.30
6680;BME280;3376;42.664;23.346;2023-04-07T11:04:59;94357.00;;;9.83;44.48
6680;BME280;3376;42.664;23.346;2023-04-07T11:10:30;94321.88;;;9.51;45.01
6680;BME280;3376;42.664;23.346;2023-04-07T11:13:02;94362.06;;;9.76;46.17
6680;BME280;3376;42.664;23.346;2023-04-07T11:15:29;94354.56;;;9.67;46.34
6680;BME280;3376;42.664;23.346;2023-04-07T11:18:15;94351.78;;;9.68;46.65
6680;BME280;3376;42.664;23.346;2023-04-07T11:20:46;94352.69;;;9.75;47.69
6680;BME280;3376;42.664;23.346;2023-04-07T11:23:13;94359.44;;;9.99;46.33
6680;BME280;3376;42.664;23.346;2023-04-07T11:25:42;94366.66;;;10.03;46.33
6680;BME280;3376;42.664;23.346;2023-04-07T11:28:10;94332.13;;;9.96;46.36
6680;BME280;3376;42.664;23.346;2023-04-07T11:30:38;94376.63;;;10.29;45.32
6680;BME280;3376;42.664;23.346;2023-04-07T11:33:06;94234.91;;;9.50;45.11
6680;BME280;3376;42.664;23.346;2023-04-07T11:35:34;94332.19;;;10.11;45.72
6680;BME280;3376;42.664;23.346;2023-04-07T11:38:02;94363.72;;;10.43;44.70
6680;BME280;3376;42.664;23.346;2023-04-07T11:40:33;94373.34;;;10.49;44.21
6680;BME280;3376;42.664;23.346;2023-04-07T11:43:01;94360.88;;;10.38;44.37
6680;BME280;3376;42.664;23.346;2023-04-07T11:45:28;94370.97;;;10.62;45.29
6680;BME280;3376;42.664;23.346;2023-04-07T11:47:55;94371.94;;;10.61;44.12
6680;BME280;3376;42.664;23.346;2023-04-07T11:50:39;94335.59;;;10.26;45.12
6680;BME280;3376;42.664;23.346;2023-04-07T11:53:08;94359.88;;;10.39;45.99
6680;BME280;3376;42.664;23.346;2023-04-07T11:55:35;94360.41;;;10.49;45.55
6680;BME280;3376;42.664;23.346;2023-04-07T11:58:06;94340.59;;;10.42;45.95
6680;BME280;3376;42.664;23.346;2023-04-07T12:00:34;94363.34;;;10.61;45.82
6680;BME280;3376;42.664;23.346;2023-04-07T12:03:09;94242.81;;;10.00;45.42
6680;BME280;3376;42.664;23.346;2023-04-07T12:05:46;94349.06;;;10.80;47.16
6680;BME280;3376;42.664;23.346;2023-04-07T12:08:14;94361.81;;;10.81;45.27
6680;BME280;3376;42.664;23.346;2023-04-07T12:10:41;94356.56;;;10.75;44.95
6680;BME280;3376;42.664;23.346;2023-04-07T12:13:08;94343.44;;;10.61;44.67
6680;BME280;3376;42.664;23.346;2023-04-07T12:15:35;94358.75;;;10.92;45.00
6680;BME280;3376;42.664;23.346;2023-04-07T12:18:02;94360.91;;;10.89;46.07
6680;BME280;3376;42.664;23.346;2023-04-07T12:20:29;94333.28;;;10.96;47.20
6680;BME280;3376;42.664;23.346;2023-04-07T12:22:56;94316.06;;;11.24;45.71
6680;BME280;3376;42.664;23.346;2023-04-07T12:25:26;94358.31;;;11.60;43.19
6680;BME280;3376;42.664;23.346;2023-04-07T12:27:52;94357.94;;;11.63;43.38
6680;BME280;3376;42.664;23.346;2023-04-07T12:30:19;94362.22;;;11.35;44.13
6680;BME280;3376;42.664;23.346;2023-04-07T12:32:46;94351.59;;;11.30;43.66
6680;BME280;3376;42.664;23.346;2023-04-07T12:35:13;94356.22;;;11.13;44.88
6680;BME280;3376;42.664;23.346;2023-04-07T12:37:40;94349.06;;;10.80;45.45
6680;BME280;3376;42.664;23.346;2023-04-07T12:40:07;94322.19;;;10.66;46.32
6680;BME280;3376;42.664;23.346;2023-04-07T12:42:36;94356.97;;;10.93;46.47
6680;BME280;3376;42.664;23.346;2023-04-07T12:45:03;94358.59;;;10.79;45.09
6680;BME280;3376;42.664;23.346;2023-04-07T12:47:29;94366.75;;;10.61;45.85
6680;BME280;3376;42.664;23.346;2023-04-07T12:49:56;94363.63;;;10.66;46.27
6680;BME280;3376;42.664;23.346;2023-04-07T12:52:23;94364.53;;;10.58;46.41
6680;BME280;3376;42.664;23.346;2023-04-07T12:54:50;94364.53;;;10.58;46.28
6680;BME280;3376;42.664;23.346;2023-04-07T12:57:17;94358.19;;;10.46;45.46
6680;BME280;3376;42.664;23.346;2023-04-07T12:59:45;94225.84;;;9.54;45.59
6680;BME280;3376;42.664;23.346;2023-04-07T13:02:12;94368.25;;;10.41;46.39
6680;BME280;3376;42.664;23.346;2023-04-07T13:04:39;94169.78;;;9.17;47.10
6680;BME280;3376;42.664;23.346;2023-04-07T13:07:10;94372.44;;;10.42;47.15
6680;BME280;3376;42.664;23.346;2023-04-07T13:09:37;94350.47;;;10.09;47.33
6680;BME280;3376;42.664;23.346;2023-04-07T13:12:04;94339.69;;;10.20;47.46
6680;BME280;3376;42.664;23.346;2023-04-07T13:14:31;94372.63;;;10.41;47.75
6680;BME280;3376;42.664;23.346;2023-04-07T13:16:59;94358.06;;;10.11;48.42
6680;BME280;3376;42.664;23.346;2023-04-07T13:19:26;94381.69;;;10.08;47.60
6680;BME280;3376;42.664;23.346;2023-04-07T13:21:52;94384.59;;;10.05;47.50
6680;BME280;3376;42.664;23.346;2023-04-07T13:24:19;94379.78;;;10.02;48.29
6680;BME280;3376;42.664;23.346;2023-04-07T13:26:46;94365.31;;;9.93;49.36
6680;BME280;3376;42.664;23.346;2023-04-07T13:29:13;94373.53;;;9.96;49.75
6680;BME280;3376;42.664;23.346;2023-04-07T13:31:40;94355.13;;;9.91;48.89